Time;durP1;ratioP1;P1;durP2;ratioP2;P2;SDS_P1;SDS_P2;PMS_P1;PMS_P2;Temp;Humidity;BMP_temperature;BMP_pressure;BME280_temperature;BME280_humidity;BME280_pressure;Samples;Min_cycle;Max_cycle;Signal;HPM_P1;HPM_P2
2022/10/30 00:00:24;;;;;;;20.17;13.18;;;13.40;99.90;;;;;;5016140;28;20033;-54
2022/10/30 00:02:50;;;;;;;15.13;11.18;;;13.40;99.90;;;;;;5018164;28;20507;-49
2022/10/30 00:05:16;;;;;;;17.73;12.93;;;13.40;99.90;;;;;;5019593;28;20041;-50
2022/10/30 00:07:42;;;;;;;19.20;13.27;;;13.40;99.90;;;;;;5018534;28;20022;-49
2022/10/30 00:10:08;;;;;;;17.58;13.35;;;13.30;99.90;;;;;;5017528;28;20034;-50
2022/10/30 00:12:34;;;;;;;20.55;13.45;;;13.40;99.90;;;;;;5018341;28;20104;-52
2022/10/30 00:15:00;;;;;;;17.38;12.45;;;13.40;99.90;;;;;;5018718;28;20108;-49
2022/10/30 00:17:25;;;;;;;14.90;12.75;;;13.30;99.90;;;;;;5015440;28;20052;-50
2022/10/30 00:19:51;;;;;;;16.23;12.60;;;13.30;99.90;;;;;;5013262;28;20029;-51
2022/10/30 00:22:16;;;;;;;16.25;12.90;;;13.30;99.90;;;;;;5020355;28;20026;-49
2022/10/30 00:24:42;;;;;;;17.70;13.23;;;13.30;99.90;;;;;;5026611;28;20022;-50
2022/10/30 00:27:07;;;;;;;18.02;14.05;;;13.30;99.90;;;;;;5015234;28;20105;-52
2022/10/30 00:29:33;;;;;;;15.98;12.40;;;13.20;99.90;;;;;;5020188;28;20029;-54
2022/10/30 00:31:58;;;;;;;19.92;13.13;;;13.30;99.90;;;;;;5020571;28;20034;-51
2022/10/30 00:34:24;;;;;;;18.23;12.27;;;13.20;99.90;;;;;;5015293;28;20033;-50
2022/10/30 00:36:50;;;;;;;18.60;12.25;;;13.20;99.90;;;;;;5015753;28;20021;-50
2022/10/30 00:39:15;;;;;;;16.45;12.60;;;13.20;99.90;;;;;;5018995;28;20034;-52
2022/10/30 00:41:41;;;;;;;16.17;12.05;;;13.20;99.90;;;;;;5025461;28;20376;-51
2022/10/30 00:44:49;;;;;;;16.85;12.10;;;13.20;99.90;;;;;;5020215;28;20040;-50
2022/10/30 00:47:32;;;;;;;19.02;13.20;;;13.20;99.90;;;;;;5009412;28;20034;-49
2022/10/30 00:50:02;;;;;;;18.77;11.88;;;13.20;99.90;;;;;;5013586;28;20088;-50
2022/10/30 00:52:36;;;;;;;18.10;12.00;;;13.10;99.90;;;;;;5012094;28;20030;-53
2022/10/30 00:55:06;;;;;;;16.85;11.13;;;13.10;99.90;;;;;;5018140;28;20060;-49
2022/10/30 00:57:33;;;;;;;16.58;11.43;;;13.10;99.90;;;;;;5014781;28;20089;-49
2022/10/30 00:59:58;;;;;;;16.08;10.95;;;13.00;99.90;;;;;;5020559;28;20412;-50
2022/10/30 01:02:25;;;;;;;13.73;10.90;;;13.10;99.90;;;;;;5014803;28;20025;-54
2022/10/30 01:04:52;;;;;;;16.27;10.75;;;13.00;99.90;;;;;;5019736;28;20038;-54
2022/10/30 01:07:18;;;;;;;12.80;10.57;;;13.00;99.90;;;;;;5018024;28;20633;-50
2022/10/30 01:09:45;;;;;;;12.25;10.25;;;13.00;99.90;;;;;;5021211;28;20059;-50
2022/10/30 01:12:11;;;;;;;13.73;11.00;;;13.00;99.90;;;;;;5017184;28;20024;-50
2022/10/30 01:14:42;;;;;;;20.42;11.50;;;13.00;99.90;;;;;;5016727;28;20034;-54
2022/10/30 01:17:34;;;;;;;14.27;10.85;;;13.00;99.90;;;;;;5013813;28;20038;-51
2022/10/30 01:20:28;;;;;;;13.65;10.50;;;13.00;99.90;;;;;;5010647;28;20034;-50
2022/10/30 01:23:08;;;;;;;17.55;11.40;;;12.90;99.90;;;;;;5014225;28;20058;-50
2022/10/30 01:25:57;;;;;;;16.00;11.65;;;12.90;99.90;;;;;;5018578;28;20064;-50
2022/10/30 01:28:29;;;;;;;15.90;9.85;;;12.90;99.90;;;;;;5008809;28;20025;-53
2022/10/30 01:31:12;;;;;;;12.57;10.18;;;12.90;99.90;;;;;;5013417;28;20026;-51
2022/10/30 01:33:52;;;;;;;13.82;9.90;;;12.90;99.90;;;;;;5014951;28;20036;-50
2022/10/30 01:36:38;;;;;;;17.67;10.25;;;12.90;99.90;;;;;;5008589;28;20059;-51
2022/10/30 01:39:24;;;;;;;12.77;9.68;;;12.80;99.90;;;;;;5019976;28;20041;-50
2022/10/30 01:41:50;;;;;;;14.43;9.83;;;12.90;99.90;;;;;;5018343;28;20499;-52
2022/10/30 01:44:24;;;;;;;10.80;9.73;;;12.80;99.90;;;;;;5017809;28;20037;-55
2022/10/30 01:46:58;;;;;;;13.10;10.10;;;12.80;99.90;;;;;;5016030;28;20025;-52
2022/10/30 01:49:42;;;;;;;13.25;9.95;;;12.80;99.90;;;;;;5014224;28;20026;-51
2022/10/30 01:52:26;;;;;;;13.55;10.57;;;12.80;99.90;;;;;;5010582;28;20600;-52
2022/10/30 01:55:10;;;;;;;15.95;11.73;;;12.80;99.90;;;;;;5016289;28;20097;-56
2022/10/30 01:57:47;;;;;;;13.93;10.52;;;12.80;99.90;;;;;;5017129;28;20029;-53
2022/10/30 02:00:14;;;;;;;18.88;11.18;;;12.80;99.90;;;;;;5010489;28;20164;-54
2022/10/30 02:02:41;;;;;;;15.52;11.30;;;12.80;99.90;;;;;;5015498;28;20064;-53
2022/10/30 02:05:09;;;;;;;15.98;11.10;;;12.90;99.90;;;;;;5041268;22;20422;-47
2022/10/30 02:07:37;;;;;;;15.82;10.75;;;12.80;99.90;;;;;;5006558;28;20026;-48
2022/10/30 02:10:04;;;;;;;17.13;11.48;;;12.80;99.90;;;;;;5006141;28;20066;-48
2022/10/30 02:12:30;;;;;;;12.45;10.45;;;12.80;99.90;;;;;;4997750;28;20030;-47
2022/10/30 02:14:58;;;;;;;16.15;10.27;;;12.90;99.90;;;;;;4999051;28;20093;-49
2022/10/30 02:17:25;;;;;;;13.52;10.10;;;12.80;99.90;;;;;;5001519;28;20026;-47
2022/10/30 02:19:50;;;;;;;14.73;9.98;;;12.80;99.90;;;;;;4999391;28;20494;-49
2022/10/30 02:22:16;;;;;;;16.13;10.65;;;12.80;99.90;;;;;;5003259;28;20018;-46
2022/10/30 02:24:43;;;;;;;16.00;10.02;;;12.80;99.90;;;;;;5012272;28;20018;-46
2022/10/30 02:27:08;;;;;;;14.57;10.05;;;12.70;99.90;;;;;;5004118;28;20505;-47
2022/10/30 02:29:34;;;;;;;13.25;9.55;;;12.70;99.90;;;;;;5012522;28;20056;-50
2022/10/30 02:32:00;;;;;;;11.05;9.48;;;12.80;99.90;;;;;;5002532;28;21322;-49
2022/10/30 02:34:25;;;;;;;12.25;8.95;;;12.70;99.90;;;;;;4997813;28;20049;-47
2022/10/30 02:36:51;;;;;;;14.48;10.70;;;12.70;99.90;;;;;;5004471;28;20022;-48
2022/10/30 02:39:16;;;;;;;12.55;9.18;;;12.70;99.90;;;;;;4996917;28;20074;-47
2022/10/30 02:41:42;;;;;;;14.23;10.38;;;12.60;99.90;;;;;;5011782;28;20029;-47
2022/10/30 02:44:08;;;;;;;12.45;9.45;;;12.60;99.90;;;;;;4998462;28;20451;-47
2022/10/30 02:46:34;;;;;;;14.82;10.38;;;12.60;99.90;;;;;;4999697;28;20378;-49
2022/10/30 02:48:59;;;;;;;15.05;9.80;;;12.60;99.90;;;;;;4999190;28;20054;-50
2022/10/30 02:51:25;;;;;;;12.50;9.65;;;12.60;99.90;;;;;;4992192;28;20504;-47
2022/10/30 02:53:50;;;;;;;13.15;9.10;;;12.50;99.90;;;;;;5019706;28;20018;-47
2022/10/30 02:56:16;;;;;;;12.90;10.43;;;12.50;99.90;;;;;;4990812;28;20040;-47
2022/10/30 02:58:42;;;;;;;12.48;9.35;;;12.50;99.90;;;;;;5019070;28;20032;-51
2022/10/30 03:01:12;;;;;;;12.10;9.70;;;12.40;99.90;;;;;;4996021;28;20554;-47
2022/10/30 03:03:38;;;;;;;14.80;10.18;;;12.40;99.90;;;;;;5015134;28;20029;-46
2022/10/30 03:06:06;;;;;;;14.32;10.25;;;12.40;99.90;;;;;;4999447;28;20397;-48
2022/10/30 03:08:33;;;;;;;13.93;9.13;;;12.30;99.90;;;;;;4998087;28;20033;-47
2022/10/30 03:11:04;;;;;;;11.30;8.60;;;12.30;99.90;;;;;;4996375;28;20030;-47
2022/10/30 03:13:33;;;;;;;11.73;8.27;;;12.30;99.90;;;;;;4999186;28;20018;-51
2022/10/30 03:16:04;;;;;;;13.50;9.27;;;12.20;99.90;;;;;;5019842;28;20026;-47
2022/10/30 03:18:29;;;;;;;15.48;9.82;;;12.20;99.90;;;;;;4997793;28;20023;-49
2022/10/30 03:21:00;;;;;;;12.25;9.23;;;12.20;99.90;;;;;;5000299;28;20031;-47
2022/10/30 03:23:26;;;;;;;10.05;8.02;;;12.10;99.90;;;;;;4994424;28;20018;-49
2022/10/30 03:25:54;;;;;;;12.82;9.27;;;12.10;99.90;;;;;;4996967;28;20047;-46
2022/10/30 03:28:20;;;;;;;13.00;7.95;;;12.10;99.90;;;;;;4999086;28;20384;-53
2022/10/30 03:30:46;;;;;;;11.02;8.32;;;12.10;99.90;;;;;;4993669;28;20118;-47
2022/10/30 03:33:12;;;;;;;12.50;9.00;;;12.10;99.90;;;;;;4999796;28;20421;-46
2022/10/30 03:35:38;;;;;;;13.00;8.98;;;12.00;99.90;;;;;;4994999;28;20042;-46
2022/10/30 03:38:03;;;;;;;9.48;8.30;;;12.00;99.90;;;;;;4994357;28;20072;-50
2022/10/30 03:40:29;;;;;;;10.07;7.65;;;12.00;99.90;;;;;;5003015;28;20072;-51
2022/10/30 03:42:54;;;;;;;9.98;7.53;;;12.00;99.90;;;;;;4990627;28;20106;-47
2022/10/30 03:45:20;;;;;;;8.75;7.53;;;11.90;99.90;;;;;;5001636;28;20026;-47
2022/10/30 03:47:45;;;;;;;10.23;8.27;;;11.90;99.90;;;;;;4996307;28;20018;-48
2022/10/30 03:50:11;;;;;;;12.25;8.30;;;11.90;99.90;;;;;;4999745;28;20033;-51
2022/10/30 03:52:36;;;;;;;12.27;8.82;;;11.90;99.90;;;;;;4999107;28;20026;-48
2022/10/30 03:55:02;;;;;;;12.15;8.07;;;11.90;99.90;;;;;;4997359;28;20034;-49
2022/10/30 03:57:27;;;;;;;13.35;8.80;;;11.80;99.90;;;;;;4999920;28;20050;-50
2022/10/30 03:59:53;;;;;;;10.00;8.38;;;11.80;99.90;;;;;;4994458;28;20046;-47
2022/10/30 04:02:18;;;;;;;11.57;8.38;;;11.80;99.90;;;;;;4995905;28;20029;-46
2022/10/30 04:04:44;;;;;;;12.85;9.02;;;11.70;99.90;;;;;;5000128;28;20134;-47
2022/10/30 04:07:12;;;;;;;9.70;8.32;;;11.70;99.90;;;;;;5001470;28;20448;-49
2022/10/30 04:09:38;;;;;;;10.82;8.05;;;11.70;99.90;;;;;;4999443;28;20061;-49
2022/10/30 04:12:03;;;;;;;9.82;8.00;;;11.70;99.90;;;;;;5001317;28;20026;-46
2022/10/30 04:14:29;;;;;;;11.02;7.82;;;11.70;99.90;;;;;;5005126;28;20026;-47
2022/10/30 04:16:55;;;;;;;11.80;8.55;;;11.60;99.90;;;;;;5002116;28;20440;-49
2022/10/30 04:19:20;;;;;;;10.10;8.00;;;11.60;99.90;;;;;;5008687;28;20399;-48
2022/10/30 04:21:46;;;;;;;13.05;8.15;;;11.60;99.90;;;;;;5002147;28;20088;-46
2022/10/30 04:24:15;;;;;;;12.88;8.25;;;11.60;99.90;;;;;;5007936;28;20057;-48
2022/10/30 04:26:40;;;;;;;12.57;8.45;;;11.60;99.90;;;;;;4999968;28;20014;-51
2022/10/30 04:29:06;;;;;;;12.07;8.23;;;11.60;99.90;;;;;;5000844;28;20088;-47
2022/10/30 04:31:31;;;;;;;8.95;7.30;;;11.50;99.90;;;;;;4998085;28;20487;-46
2022/10/30 04:33:57;;;;;;;13.52;9.18;;;11.60;99.90;;;;;;5000355;28;20081;-48
2022/10/30 04:36:28;;;;;;;11.45;8.35;;;11.60;99.90;;;;;;5002671;28;20436;-51
2022/10/30 04:38:54;;;;;;;11.70;8.00;;;11.60;99.90;;;;;;5001129;28;20089;-47
2022/10/30 04:41:20;;;;;;;9.23;7.63;;;11.50;99.90;;;;;;4995472;28;20030;-48
2022/10/30 04:43:48;;;;;;;13.45;9.20;;;11.60;99.90;;;;;;4998629;28;20042;-49
2022/10/30 04:46:13;;;;;;;10.35;8.13;;;11.50;99.90;;;;;;5004233;28;20100;-49
2022/10/30 04:48:39;;;;;;;9.93;8.02;;;11.50;99.90;;;;;;4996132;28;20113;-49
2022/10/30 04:51:05;;;;;;;12.73;8.73;;;11.50;99.90;;;;;;5000342;28;20518;-51
2022/10/30 04:53:30;;;;;;;11.05;7.88;;;11.50;99.90;;;;;;5003682;28;20113;-47
2022/10/30 04:55:56;;;;;;;10.00;7.43;;;11.40;99.90;;;;;;5003348;28;20026;-48
2022/10/30 04:58:21;;;;;;;10.15;8.25;;;11.40;99.90;;;;;;5003407;28;20432;-47
2022/10/30 05:00:47;;;;;;;10.55;8.00;;;11.40;99.90;;;;;;5002122;28;20038;-52
2022/10/30 05:03:23;;;;;;;12.30;8.30;;;11.40;99.90;;;;;;5000920;28;20031;-50
2022/10/30 05:06:23;;;;;;;12.90;8.38;;;11.40;99.90;;;;;;5003489;28;20035;-49
2022/10/30 05:08:49;;;;;;;15.38;8.10;;;11.30;99.90;;;;;;4985211;28;20471;-48
2022/10/30 05:11:16;;;;;;;8.90;7.95;;;11.40;99.90;;;;;;4999162;28;20033;-46
2022/10/30 05:13:42;;;;;;;11.82;7.50;;;11.30;99.90;;;;;;5003501;28;20045;-51
2022/10/30 05:16:07;;;;;;;9.95;7.20;;;11.30;99.90;;;;;;5001067;28;20089;-47
2022/10/30 05:18:33;;;;;;;11.10;8.40;;;11.40;99.90;;;;;;5002334;28;20032;-47
2022/10/30 05:20:58;;;;;;;9.10;7.15;;;11.30;99.90;;;;;;5002205;28;20447;-48
2022/10/30 05:23:24;;;;;;;13.30;8.75;;;11.30;99.90;;;;;;4999456;28;20395;-50
2022/10/30 05:25:49;;;;;;;10.18;7.88;;;11.30;99.90;;;;;;4996568;28;20022;-46
2022/10/30 05:28:15;;;;;;;9.55;8.32;;;11.30;99.90;;;;;;4997232;28;20357;-48
2022/10/30 05:30:41;;;;;;;10.30;8.13;;;11.30;99.90;;;;;;5002961;28;20022;-46
2022/10/30 05:33:09;;;;;;;10.75;7.50;;;11.30;99.90;;;;;;4996057;28;20503;-47
2022/10/30 05:35:35;;;;;;;11.43;8.95;;;11.30;99.90;;;;;;5002469;28;20026;-48
2022/10/30 05:38:02;;;;;;;10.55;7.90;;;11.30;99.90;;;;;;4997901;28;20405;-49
2022/10/30 05:40:28;;;;;;;8.10;7.25;;;11.30;99.90;;;;;;4994836;28;20509;-49
2022/10/30 05:42:53;;;;;;;10.13;9.02;;;11.30;99.90;;;;;;5001409;28;20065;-46
2022/10/30 05:45:20;;;;;;;11.50;8.25;;;11.20;99.90;;;;;;4998845;28;20030;-46
2022/10/30 05:48:02;;;;;;;11.30;8.63;;;11.30;99.90;;;;;;5011907;28;20062;-46
2022/10/30 05:50:28;;;;;;;9.48;6.88;;;11.30;99.90;;;;;;4996982;28;20045;-48
2022/10/30 05:52:59;;;;;;;11.25;7.50;;;11.20;99.90;;;;;;4999828;28;20062;-47
2022/10/30 05:55:25;;;;;;;12.65;7.80;;;11.30;99.90;;;;;;5000303;28;20052;-48
2022/10/30 05:58:02;;;;;;;10.93;7.80;;;11.20;99.90;;;;;;4998491;28;20388;-46
2022/10/30 06:00:29;;;;;;;10.88;7.40;;;11.20;99.90;;;;;;5002752;28;20399;-49
2022/10/30 06:03:04;;;;;;;9.45;8.45;;;11.20;99.90;;;;;;5014555;28;20018;-49
2022/10/30 06:05:31;;;;;;;11.75;7.85;;;11.20;99.90;;;;;;5004176;28;20022;-48
2022/10/30 06:07:56;;;;;;;10.30;7.50;;;11.20;99.90;;;;;;5013059;28;20022;-49
2022/10/30 06:10:25;;;;;;;9.02;7.85;;;11.10;99.90;;;;;;4993862;28;20018;-48
2022/10/30 06:12:52;;;;;;;10.90;7.45;;;11.10;99.90;;;;;;4999286;28;20019;-47
2022/10/30 06:15:18;;;;;;;10.02;7.78;;;11.10;99.90;;;;;;5000273;28;20030;-47
2022/10/30 06:17:44;;;;;;;9.50;7.53;;;11.10;99.90;;;;;;4999780;28;20030;-47
2022/10/30 06:20:09;;;;;;;12.50;7.75;;;11.10;99.90;;;;;;5001047;28;20061;-46
2022/10/30 06:22:35;;;;;;;10.35;7.63;;;11.10;99.90;;;;;;5002122;28;20022;-47
2022/10/30 06:25:00;;;;;;;9.35;7.80;;;11.00;99.90;;;;;;4998118;28;20030;-47
2022/10/30 06:27:26;;;;;;;9.38;8.27;;;11.10;99.90;;;;;;4996509;28;20023;-50
2022/10/30 06:29:53;;;;;;;10.15;8.35;;;11.00;99.90;;;;;;4998423;28;20525;-47
2022/10/30 06:32:19;;;;;;;10.40;8.02;;;11.00;99.90;;;;;;4996926;28;20093;-47
2022/10/30 06:34:45;;;;;;;10.13;7.25;;;11.00;99.90;;;;;;5001625;28;20053;-47
2022/10/30 06:37:10;;;;;;;10.35;8.25;;;11.00;99.90;;;;;;5001197;28;20034;-49
2022/10/30 06:39:36;;;;;;;10.90;7.88;;;11.00;99.90;;;;;;4995647;28;20029;-49
2022/10/30 06:42:02;;;;;;;13.35;7.80;;;11.00;99.90;;;;;;5008784;28;20034;-48
2022/10/30 06:44:27;;;;;;;12.80;8.07;;;11.00;99.90;;;;;;5001254;28;20551;-51
2022/10/30 06:46:53;;;;;;;10.80;7.75;;;11.00;99.90;;;;;;4993773;28;20033;-48
2022/10/30 06:49:19;;;;;;;11.43;7.72;;;11.10;99.90;;;;;;4994119;28;20038;-50
2022/10/30 06:51:46;;;;;;;13.60;8.18;;;11.10;99.90;;;;;;5007739;28;20539;-50
2022/10/30 06:54:11;;;;;;;9.70;8.13;;;11.10;99.90;;;;;;4999101;28;20022;-46
2022/10/30 06:56:37;;;;;;;12.00;8.00;;;11.10;99.90;;;;;;5001363;28;20507;-49
2022/10/30 06:59:02;;;;;;;10.73;7.60;;;11.10;99.90;;;;;;4999815;28;20037;-52
2022/10/30 07:01:28;;;;;;;12.52;8.32;;;11.10;99.90;;;;;;5002534;28;20053;-48
2022/10/30 07:03:53;;;;;;;12.63;8.55;;;11.10;99.90;;;;;;4999819;28;20528;-49
2022/10/30 07:06:19;;;;;;;9.65;8.25;;;11.10;99.90;;;;;;4995502;28;20027;-52
2022/10/30 07:08:45;;;;;;;9.15;7.22;;;11.10;99.90;;;;;;4996093;28;20481;-46
2022/10/30 07:11:11;;;;;;;16.33;8.85;;;11.20;99.90;;;;;;4998634;28;20481;-54
2022/10/30 07:13:36;;;;;;;9.90;8.13;;;11.20;99.90;;;;;;4996336;28;20046;-48
2022/10/30 07:16:02;;;;;;;9.90;8.07;;;11.20;99.90;;;;;;4999166;28;20034;-50
2022/10/30 07:18:28;;;;;;;11.82;8.60;;;11.20;99.90;;;;;;4997934;28;20027;-50
2022/10/30 07:20:57;;;;;;;10.93;7.85;;;11.20;99.90;;;;;;4997719;28;20503;-48
2022/10/30 07:23:23;;;;;;;12.00;8.80;;;11.20;99.90;;;;;;4997268;28;20146;-49
2022/10/30 07:25:49;;;;;;;11.40;8.38;;;11.30;99.90;;;;;;5000174;28;20120;-48
2022/10/30 07:28:14;;;;;;;12.63;8.82;;;11.30;99.90;;;;;;4995387;28;20022;-49
2022/10/30 07:30:40;;;;;;;11.70;8.73;;;11.30;99.90;;;;;;5001860;28;20163;-51
2022/10/30 07:33:07;;;;;;;11.88;8.07;;;11.30;99.90;;;;;;5003259;28;20067;-49
2022/10/30 07:35:35;;;;;;;11.18;8.30;;;11.30;99.90;;;;;;5005128;28;20036;-48
2022/10/30 07:38:06;;;;;;;11.68;8.07;;;11.40;99.90;;;;;;5003464;28;20030;-48
2022/10/30 07:40:32;;;;;;;11.50;7.88;;;11.40;99.90;;;;;;5001815;28;20069;-47
2022/10/30 07:43:00;;;;;;;12.32;9.80;;;11.40;99.90;;;;;;5008596;28;20758;-49
2022/10/30 07:45:26;;;;;;;12.65;9.15;;;11.50;99.90;;;;;;5001624;28;20109;-51
2022/10/30 07:47:52;;;;;;;14.48;8.57;;;11.50;99.90;;;;;;5009278;28;20014;-47
2022/10/30 07:50:18;;;;;;;12.70;9.13;;;11.50;99.90;;;;;;5000459;28;20027;-50
2022/10/30 07:52:44;;;;;;;12.10;9.60;;;11.60;99.90;;;;;;5001448;28;20527;-50
2022/10/30 07:55:10;;;;;;;10.70;9.10;;;11.70;99.90;;;;;;5018766;28;20037;-48
2022/10/30 07:57:40;;;;;;;15.02;10.43;;;11.70;99.90;;;;;;4995464;28;20026;-47
2022/10/30 08:00:08;;;;;;;13.65;10.13;;;11.70;99.90;;;;;;5006791;28;20029;-47
2022/10/30 08:02:34;;;;;;;16.75;11.40;;;11.80;99.90;;;;;;5015787;28;20026;-55
2022/10/30 08:05:00;;;;;;;17.00;11.03;;;11.90;99.90;;;;;;5028986;23;20033;-58
2022/10/30 08:07:33;;;;;;;13.27;9.32;;;12.00;99.90;;;;;;5038240;28;20038;-53
2022/10/30 08:09:59;;;;;;;12.95;11.00;;;12.00;99.90;;;;;;5038746;28;20037;-56
2022/10/30 08:12:25;;;;;;;18.00;11.20;;;12.10;99.90;;;;;;5034046;28;20035;-51
2022/10/30 08:14:52;;;;;;;13.18;10.43;;;12.20;99.90;;;;;;5040657;28;20108;-55
2022/10/30 08:17:18;;;;;;;13.50;10.70;;;12.30;99.90;;;;;;5021558;28;20032;-55
2022/10/30 08:19:43;;;;;;;20.80;11.82;;;12.40;99.90;;;;;;5020860;28;20056;-55
2022/10/30 08:22:12;;;;;;;16.77;11.25;;;12.40;99.90;;;;;;5024492;28;20388;-49
2022/10/30 08:24:38;;;;;;;15.55;10.15;;;12.50;99.90;;;;;;5020272;28;20598;-53
2022/10/30 08:27:03;;;;;;;14.77;11.23;;;12.50;99.90;;;;;;5016571;28;20022;-53
2022/10/30 08:29:29;;;;;;;17.63;11.75;;;12.60;99.90;;;;;;5023917;28;20407;-50
2022/10/30 08:31:55;;;;;;;17.60;11.88;;;12.60;99.90;;;;;;5017163;28;20045;-49
2022/10/30 08:34:21;;;;;;;19.48;12.68;;;12.70;99.90;;;;;;5026196;28;20117;-52
2022/10/30 08:36:50;;;;;;;19.52;12.07;;;12.80;99.90;;;;;;5003718;28;20053;-53
2022/10/30 08:39:17;;;;;;;16.17;10.93;;;12.90;99.90;;;;;;5011434;28;20105;-53
2022/10/30 08:41:43;;;;;;;15.82;11.27;;;13.00;99.90;;;;;;5022093;28;20484;-52
2022/10/30 08:44:09;;;;;;;19.00;11.02;;;13.00;99.90;;;;;;5020768;28;20128;-53
2022/10/30 08:46:34;;;;;;;17.33;11.52;;;13.00;99.90;;;;;;5023900;28;20025;-53
2022/10/30 08:49:00;;;;;;;20.20;12.18;;;13.10;99.90;;;;;;5020204;28;20480;-51
2022/10/30 08:51:26;;;;;;;21.80;12.43;;;13.10;99.90;;;;;;5023122;28;20026;-49
2022/10/30 08:53:54;;;;;;;18.13;12.27;;;13.20;99.90;;;;;;5013154;28;20033;-53
2022/10/30 08:56:19;;;;;;;19.55;12.15;;;13.30;99.90;;;;;;5023656;28;20420;-51
2022/10/30 08:58:45;;;;;;;31.52;12.45;;;13.40;99.90;;;;;;5015811;28;20014;-52
2022/10/30 09:01:10;;;;;;;23.33;13.10;;;13.40;99.90;;;;;;5019785;28;20072;-57
2022/10/30 09:03:37;;;;;;;23.05;12.07;;;13.50;99.90;;;;;;5014513;28;20010;-53
2022/10/30 09:06:03;;;;;;;21.10;12.77;;;13.60;99.90;;;;;;5020240;28;20029;-52
2022/10/30 09:08:29;;;;;;;19.90;12.55;;;13.70;99.90;;;;;;5019153;28;20034;-56
2022/10/30 09:10:57;;;;;;;20.30;11.63;;;13.80;99.90;;;;;;5018418;28;20025;-52
2022/10/30 09:13:24;;;;;;;23.52;12.88;;;13.90;99.90;;;;;;5017407;28;20045;-53
2022/10/30 09:15:50;;;;;;;21.88;13.40;;;13.90;99.90;;;;;;5015008;28;20071;-50
2022/10/30 09:18:16;;;;;;;21.42;12.50;;;14.00;99.90;;;;;;5020173;28;20108;-51
2022/10/30 09:20:42;;;;;;;18.42;11.73;;;14.10;99.90;;;;;;5019814;28;20040;-49
2022/10/30 09:23:07;;;;;;;20.48;12.43;;;14.20;99.90;;;;;;5020511;28;20033;-54
2022/10/30 09:25:33;;;;;;;25.40;14.20;;;14.30;99.90;;;;;;5018316;28;20032;-53
2022/10/30 09:27:58;;;;;;;16.55;11.85;;;14.30;99.90;;;;;;5020654;28;20599;-55
2022/10/30 09:30:24;;;;;;;23.00;12.05;;;14.40;99.90;;;;;;5018079;28;20117;-54
2022/10/30 09:32:58;;;;;;;16.02;11.07;;;14.50;99.90;;;;;;5019592;28;20029;-51
2022/10/30 09:35:24;;;;;;;18.80;12.57;;;14.60;99.90;;;;;;5014279;28;20124;-53
2022/10/30 09:37:49;;;;;;;18.08;11.90;;;14.70;99.90;;;;;;5011852;28;20503;-53
2022/10/30 09:41:02;;;;;;;21.02;12.85;;;14.80;99.90;;;;;;5018345;28;20026;-54
2022/10/30 09:43:51;;;;;;;17.40;11.27;;;14.90;99.90;;;;;;5014919;28;20529;-53
2022/10/30 09:46:26;;;;;;;17.13;10.80;;;15.00;99.90;;;;;;5007358;28;20383;-53
2022/10/30 09:49:18;;;;;;;16.70;10.27;;;15.10;99.90;;;;;;5018083;28;20052;-51
2022/10/30 09:52:17;;;;;;;17.83;10.63;;;15.20;99.90;;;;;;5018088;28;20039;-50
2022/10/30 09:55:02;;;;;;;13.63;10.57;;;15.20;99.90;;;;;;5019215;28;20025;-49
2022/10/30 09:57:48;;;;;;;16.95;10.32;;;15.30;99.90;;;;;;5015395;28;20018;-53
2022/10/30 10:00:21;;;;;;;18.38;10.48;;;15.40;99.90;;;;;;5014688;28;20373;-51
2022/10/30 10:03:01;;;;;;;13.95;9.68;;;15.40;99.90;;;;;;5009928;28;20042;-50
2022/10/30 10:05:47;;;;;;;14.52;9.48;;;15.40;99.90;;;;;;5012940;28;20103;-54
2022/10/30 10:08:25;;;;;;;19.67;9.85;;;15.50;99.90;;;;;;5020146;28;20028;-54
2022/10/30 10:10:59;;;;;;;14.75;9.18;;;15.50;99.90;;;;;;5019569;28;20151;-54
2022/10/30 10:13:44;;;;;;;15.40;9.95;;;15.60;99.90;;;;;;5016583;28;20514;-54
2022/10/30 10:16:19;;;;;;;18.77;9.85;;;15.60;99.90;;;;;;5014465;28;20493;-50
2022/10/30 10:18:55;;;;;;;16.10;9.50;;;15.80;99.90;;;;;;5020272;28;20191;-52
2022/10/30 10:21:24;;;;;;;17.52;9.52;;;15.80;99.90;;;;;;5020572;28;20037;-50
2022/10/30 10:23:54;;;;;;;18.27;10.80;;;15.90;99.90;;;;;;5012769;28;20053;-51
2022/10/30 10:26:28;;;;;;;15.60;9.63;;;15.90;99.90;;;;;;5019948;28;20029;-53
2022/10/30 10:29:15;;;;;;;15.98;10.25;;;16.00;99.90;;;;;;5022574;28;20072;-53
2022/10/30 10:32:02;;;;;;;16.42;10.63;;;16.10;99.90;;;;;;5013440;28;20022;-53
2022/10/30 10:35:10;;;;;;;14.80;10.02;;;16.10;99.90;;;;;;5011188;28;20527;-53
2022/10/30 10:37:48;;;;;;;15.45;9.60;;;16.20;99.90;;;;;;5003627;28;20506;-56
2022/10/30 10:40:25;;;;;;;16.45;10.15;;;16.30;99.90;;;;;;5010031;28;20049;-53
2022/10/30 10:43:06;;;;;;;17.30;10.48;;;16.40;99.90;;;;;;5022933;28;20480;-50
2022/10/30 10:45:51;;;;;;;15.68;9.63;;;16.40;99.90;;;;;;5004634;28;20053;-53
2022/10/30 10:48:25;;;;;;;20.85;11.32;;;16.50;99.90;;;;;;5010738;28;20103;-52
2022/10/30 10:51:16;;;;;;;19.98;9.82;;;16.50;99.90;;;;;;5016781;28;20021;-54
2022/10/30 10:53:57;;;;;;;12.73;8.95;;;16.60;99.90;;;;;;5018619;28;20645;-50
2022/10/30 10:56:30;;;;;;;15.68;9.75;;;16.70;99.90;;;;;;5004276;28;20093;-49
2022/10/30 10:59:19;;;;;;;18.70;10.25;;;16.70;99.90;;;;;;5016039;28;20224;-50
2022/10/30 11:02:38;;;;;;;12.95;9.43;;;16.80;99.90;;;;;;5016385;28;20092;-54
2022/10/30 11:05:11;;;;;;;17.30;10.10;;;16.90;99.90;;;;;;4977042;28;20374;-50
2022/10/30 11:07:46;;;;;;;18.83;9.35;;;17.00;99.90;;;;;;5010117;28;20050;-50
2022/10/30 11:10:14;;;;;;;19.02;8.95;;;17.00;99.90;;;;;;5015104;28;20041;-50
2022/10/30 11:12:41;;;;;;;16.10;8.70;;;17.00;99.90;;;;;;5014028;28;20065;-54
2022/10/30 11:15:36;;;;;;;13.35;8.35;;;17.10;99.90;;;;;;5014763;28;20022;-50
2022/10/30 11:18:06;;;;;;;18.88;9.27;;;17.10;99.90;;;;;;5015254;28;20026;-49
2022/10/30 11:20:53;;;;;;;14.02;9.63;;;17.20;99.90;;;;;;5017130;28;20048;-53
2022/10/30 11:23:39;;;;;;;15.88;9.73;;;17.20;99.90;;;;;;5019378;28;20013;-54
2022/10/30 11:26:30;;;;;;;13.75;9.35;;;17.20;99.90;;;;;;5018738;28;20160;-53
2022/10/30 11:29:15;;;;;;;15.52;8.07;;;17.30;99.90;;;;;;5013521;28;20021;-50
2022/10/30 11:31:42;;;;;;;18.33;9.48;;;17.40;99.90;;;;;;5016973;28;20033;-49
2022/10/30 11:34:17;;;;;;;12.10;8.27;;;17.40;99.90;;;;;;5022836;28;20065;-56
2022/10/30 11:36:47;;;;;;;13.93;8.57;;;17.50;99.90;;;;;;5015836;28;20026;-50
2022/10/30 11:39:21;;;;;;;12.73;7.53;;;17.50;99.90;;;;;;5020940;28;20033;-50
2022/10/30 11:42:12;;;;;;;12.30;8.15;;;17.60;99.90;;;;;;5019213;28;20388;-50
2022/10/30 11:44:50;;;;;;;17.48;8.27;;;17.60;99.90;;;;;;5011606;28;20051;-50
2022/10/30 11:47:26;;;;;;;13.15;8.40;;;17.70;99.90;;;;;;5018850;28;20504;-51
2022/10/30 11:50:00;;;;;;;16.05;8.25;;;17.70;99.90;;;;;;5022101;28;20013;-56
2022/10/30 11:52:26;;;;;;;14.20;7.90;;;17.70;99.90;;;;;;5000285;28;20050;-50
2022/10/30 11:54:53;;;;;;;13.57;8.27;;;17.70;99.90;;;;;;4998993;28;20545;-54
2022/10/30 11:57:31;;;;;;;17.75;8.95;;;17.70;99.90;;;;;;5016114;28;20488;-53
2022/10/30 11:59:57;;;;;;;11.13;7.35;;;17.80;99.90;;;;;;5014446;28;20029;-54
2022/10/30 12:02:28;;;;;;;13.50;9.13;;;17.80;99.90;;;;;;5020025;28;20030;-52
2022/10/30 12:04:59;;;;;;;12.60;7.80;;;17.80;99.90;;;;;;5024958;28;20020;-54
2022/10/30 12:07:30;;;;;;;16.95;8.55;;;17.90;99.90;;;;;;5017059;28;20519;-55
2022/10/30 12:09:57;;;;;;;16.17;7.57;;;17.90;99.90;;;;;;5018182;28;20032;-53
2022/10/30 12:12:26;;;;;;;13.07;8.10;;;17.90;99.90;;;;;;5021540;28;20014;-54
2022/10/30 12:14:52;;;;;;;14.52;8.85;;;18.00;99.90;;;;;;5016717;28;20069;-53
2022/10/30 12:17:19;;;;;;;14.02;7.78;;;18.00;99.90;;;;;;5025948;28;20041;-53
2022/10/30 12:19:50;;;;;;;14.65;9.35;;;18.00;99.90;;;;;;5020612;28;20022;-51
2022/10/30 12:22:29;;;;;;;15.02;8.88;;;18.00;99.90;;;;;;5013027;28;20061;-53
2022/10/30 12:24:56;;;;;;;12.25;8.13;;;18.00;99.90;;;;;;5018893;28;20034;-53
2022/10/30 12:27:25;;;;;;;13.50;7.00;;;18.00;99.90;;;;;;5024144;28;20380;-53
2022/10/30 12:30:17;;;;;;;12.75;7.35;;;18.00;99.90;;;;;;5020239;28;20022;-55
2022/10/30 12:32:55;;;;;;;18.45;7.43;;;18.00;99.90;;;;;;5020466;28;20404;-57
2022/10/30 12:35:26;;;;;;;14.30;8.30;;;18.10;99.90;;;;;;5013102;28;20102;-54
2022/10/30 12:37:53;;;;;;;15.98;8.57;;;18.10;99.90;;;;;;5021102;28;20018;-55
2022/10/30 12:40:35;;;;;;;12.15;7.75;;;18.20;99.90;;;;;;5020499;28;20097;-53
2022/10/30 12:43:26;;;;;;;18.50;7.82;;;18.20;99.90;;;;;;5026870;28;20503;-50
2022/10/30 12:45:59;;;;;;;12.55;7.53;;;18.30;99.90;;;;;;5017719;28;20065;-52
2022/10/30 12:48:38;;;;;;;10.95;7.35;;;18.20;99.90;;;;;;5026682;28;20014;-50